sensor_id;sensor_type;location;lat;lon;timestamp;temperature;humidity
33994;DHT22;20673;48.980;8.138;2022-07-30T00:00:58;18.80;99.90
33994;DHT22;20673;48.980;8.138;2022-07-30T00:03:24;18.70;99.90
33994;DHT22;20673;48.980;8.138;2022-07-30T00:05:52;18.70;99.90
33994;DHT22;20673;48.980;8.138;2022-07-30T00:08:20;18.60;99.90
33994;DHT22;20673;48.980;8.138;2022-07-30T00:10:47;18.50;99.90
33994;DHT22;20673;48.980;8.138;2022-07-30T00:13:14;18.40;99.90
33994;DHT22;20673;48.980;8.138;2022-07-30T00:15:41;18.40;99.90
33994;DHT22;20673;48.980;8.138;2022-07-30T00:18:07;18.40;99.90
33994;DHT22;20673;48.980;8.138;2022-07-30T00:20:34;18.40;99.90
33994;DHT22;20673;48.980;8.138;2022-07-30T00:23:03;18.50;99.90
33994;DHT22;20673;48.980;8.138;2022-07-30T00:25:30;18.30;99.90
33994;DHT22;20673;48.980;8.138;2022-07-30T00:27:56;18.10;99.90
33994;DHT22;20673;48.980;8.138;2022-07-30T00:30:23;18.10;99.90
33994;DHT22;20673;48.980;8.138;2022-07-30T00:32:50;18.10;99.90
33994;DHT22;20673;48.980;8.138;2022-07-30T00:35:16;17.90;99.90
33994;DHT22;20673;48.980;8.138;2022-07-30T00:37:43;17.90;99.90
33994;DHT22;20673;48.980;8.138;2022-07-30T00:40:09;17.90;99.90
33994;DHT22;20673;48.980;8.138;2022-07-30T00:42:40;17.80;99.90
33994;DHT22;20673;48.980;8.138;2022-07-30T00:45:09;17.70;99.90
33994;DHT22;20673;48.980;8.138;2022-07-30T00:47:37;17.70;99.90
33994;DHT22;20673;48.980;8.138;2022-07-30T00:50:05;17.70;99.90
33994;DHT22;20673;48.980;8.138;2022-07-30T00:52:34;17.60;99.90
33994;DHT22;20673;48.980;8.138;2022-07-30T00:55:03;17.50;99.90
33994;DHT22;20673;48.980;8.138;2022-07-30T00:57:30;17.40;99.90
33994;DHT22;20673;48.980;8.138;2022-07-30T00:59:57;17.30;99.90
33994;DHT22;20673;48.980;8.138;2022-07-30T01:02:23;17.20;99.90
33994;DHT22;20673;48.980;8.138;2022-07-30T01:04:49;17.20;99.90
33994;DHT22;20673;48.980;8.138;2022-07-30T01:07:16;17.20;99.90
33994;DHT22;20673;48.980;8.138;2022-07-30T01:09:42;17.20;99.90
33994;DHT22;20673;48.980;8.138;2022-07-30T01:12:08;17.10;99.90
33994;DHT22;20673;48.980;8.138;2022-07-30T01:14:36;17.10;99.90
33994;DHT22;20673;48.980;8.138;2022-07-30T01:17:03;17.10;99.90
33994;DHT22;20673;48.980;8.138;2022-07-30T01:19:33;17.00;99.90
33994;DHT22;20673;48.980;8.138;2022-07-30T01:25:23;17.00;99.90
33994;DHT22;20673;48.980;8.138;2022-07-30T01:28:02;16.80;99.90
33994;DHT22;20673;48.980;8.138;2022-07-30T01:30:33;16.60;99.90
33994;DHT22;20673;48.980;8.138;2022-07-30T01:33:03;16.50;99.90
33994;DHT22;20673;48.980;8.138;2022-07-30T01:35:32;16.40;99.90
33994;DHT22;20673;48.980;8.138;2022-07-30T01:38:01;16.40;99.90
33994;DHT22;20673;48.980;8.138;2022-07-30T01:40:30;16.40;99.90
33994;DHT22;20673;48.980;8.138;2022-07-30T01:42:59;16.30;99.90
33994;DHT22;20673;48.980;8.138;2022-07-30T01:45:28;16.20;99.90
33994;DHT22;20673;48.980;8.138;2022-07-30T01:47:58;16.20;99.90
33994;DHT22;20673;48.980;8.138;2022-07-30T01:50:27;16.10;99.90
33994;DHT22;20673;48.980;8.138;2022-07-30T01:52:56;16.10;99.90
33994;DHT22;20673;48.980;8.138;2022-07-30T01:55:33;16.10;99.90
33994;DHT22;20673;48.980;8.138;2022-07-30T01:58:02;16.20;99.90
33994;DHT22;20673;48.980;8.138;2022-07-30T02:00:32;16.10;99.90
33994;DHT22;20673;48.980;8.138;2022-07-30T02:03:01;16.00;99.90
33994;DHT22;20673;48.980;8.138;2022-07-30T02:05:31;16.10;99.90
33994;DHT22;20673;48.980;8.138;2022-07-30T02:11:07;15.90;99.90
33994;DHT22;20673;48.980;8.138;2022-07-30T02:13:45;15.80;99.90
33994;DHT22;20673;48.980;8.138;2022-07-30T02:16:23;15.90;99.90
33994;DHT22;20673;48.980;8.138;2022-07-30T02:18:55;15.90;99.90
33994;DHT22;20673;48.980;8.138;2022-07-30T02:21:30;15.80;99.90
33994;DHT22;20673;48.980;8.138;2022-07-30T02:24:01;15.70;99.90
33994;DHT22;20673;48.980;8.138;2022-07-30T02:26:31;15.50;99.90
33994;DHT22;20673;48.980;8.138;2022-07-30T02:29:01;15.40;99.90
33994;DHT22;20673;48.980;8.138;2022-07-30T02:31:30;15.40;99.90
33994;DHT22;20673;48.980;8.138;2022-07-30T02:34:00;15.30;99.90
33994;DHT22;20673;48.980;8.138;2022-07-30T02:36:30;15.20;99.90
33994;DHT22;20673;48.980;8.138;2022-07-30T02:38:58;15.30;99.90
33994;DHT22;20673;48.980;8.138;2022-07-30T02:41:28;15.30;99.90
33994;DHT22;20673;48.980;8.138;2022-07-30T02:43:57;15.30;99.90
33994;DHT22;20673;48.980;8.138;2022-07-30T02:46:25;15.20;99.90
33994;DHT22;20673;48.980;8.138;2022-07-30T02:48:53;15.10;99.90
33994;DHT22;20673;48.980;8.138;2022-07-30T02:51:21;15.10;99.90
33994;DHT22;20673;48.980;8.138;2022-07-30T02:53:50;15.20;99.90
33994;DHT22;20673;48.980;8.138;2022-07-30T02:56:20;15.10;99.90
33994;DHT22;20673;48.980;8.138;2022-07-30T02:58:47;15.10;99.90
33994;DHT22;20673;48.980;8.138;2022-07-30T03:01:17;15.10;99.90
33994;DHT22;20673;48.980;8.138;2022-07-30T03:03:46;15.00;99.90
33994;DHT22;20673;48.980;8.138;2022-07-30T03:06:14;15.00;99.90
33994;DHT22;20673;48.980;8.138;2022-07-30T03:08:43;15.00;99.90
33994;DHT22;20673;48.980;8.138;2022-07-30T03:11:11;15.10;99.90
33994;DHT22;20673;48.980;8.138;2022-07-30T03:13:38;15.00;99.90
33994;DHT22;20673;48.980;8.138;2022-07-30T03:16:08;15.00;99.90
33994;DHT22;20673;48.980;8.138;2022-07-30T03:18:37;15.00;99.90
33994;DHT22;20673;48.980;8.138;2022-07-30T03:21:10;14.90;99.90
33994;DHT22;20673;48.980;8.138;2022-07-30T03:23:38;14.90;99.90
33994;DHT22;20673;48.980;8.138;2022-07-30T03:26:07;14.90;99.90
33994;DHT22;20673;48.980;8.138;2022-07-30T03:28:37;14.80;99.90
33994;DHT22;20673;48.980;8.138;2022-07-30T03:31:05;14.80;99.90
33994;DHT22;20673;48.980;8.138;2022-07-30T03:33:34;14.70;99.90
33994;DHT22;20673;48.980;8.138;2022-07-30T03:36:02;14.70;99.90
33994;DHT22;20673;48.980;8.138;2022-07-30T03:38:30;14.70;99.90
33994;DHT22;20673;48.980;8.138;2022-07-30T03:40:57;14.80;99.90
33994;DHT22;20673;48.980;8.138;2022-07-30T03:43:25;14.70;99.90
33994;DHT22;20673;48.980;8.138;2022-07-30T03:45:52;14.70;99.90
33994;DHT22;20673;48.980;8.138;2022-07-30T03:48:21;14.60;99.90
33994;DHT22;20673;48.980;8.138;2022-07-30T03:50:48;14.50;99.90
33994;DHT22;20673;48.980;8.138;2022-07-30T03:53:16;14.50;99.90
33994;DHT22;20673;48.980;8.138;2022-07-30T03:55:44;14.40;99.90
33994;DHT22;20673;48.980;8.138;2022-07-30T03:58:11;14.40;99.90
33994;DHT22;20673;48.980;8.138;2022-07-30T04:00:38;14.40;99.90
33994;DHT22;20673;48.980;8.138;2022-07-30T04:03:05;14.40;99.90
33994;DHT22;20673;48.980;8.138;2022-07-30T04:05:33;14.40;99.90
33994;DHT22;20673;48.980;8.138;2022-07-30T04:07:59;14.30;99.90
33994;DHT22;20673;48.980;8.138;2022-07-30T04:10:25;14.40;99.90
33994;DHT22;20673;48.980;8.138;2022-07-30T04:12:51;14.40;99.90
33994;DHT22;20673;48.980;8.138;2022-07-30T04:15:17;14.60;99.90
33994;DHT22;20673;48.980;8.138;2022-07-30T04:17:46;14.50;99.90
33994;DHT22;20673;48.980;8.138;2022-07-30T04:20:23;14.40;99.90
33994;DHT22;20673;48.980;8.138;2022-07-30T04:22:52;14.40;99.90
33994;DHT22;20673;48.980;8.138;2022-07-30T04:25:20;14.40;99.90
33994;DHT22;20673;48.980;8.138;2022-07-30T04:27:48;14.50;99.90
33994;DHT22;20673;48.980;8.138;2022-07-30T04:30:14;14.50;99.90
33994;DHT22;20673;48.980;8.138;2022-07-30T04:32:41;14.70;99.90
33994;DHT22;20673;48.980;8.138;2022-07-30T04:35:08;14.70;99.90
33994;DHT22;20673;48.980;8.138;2022-07-30T04:37:34;14.60;99.90
33994;DHT22;20673;48.980;8.138;2022-07-30T04:40:00;14.70;99.90
33994;DHT22;20673;48.980;8.138;2022-07-30T04:42:27;14.70;99.90
33994;DHT22;20673;48.980;8.138;2022-07-30T04:44:55;14.70;99.90
33994;DHT22;20673;48.980;8.138;2022-07-30T04:47:22;14.70;99.90
33994;DHT22;20673;48.980;8.138;2022-07-30T04:49:49;14.70;99.90
33994;DHT22;20673;48.980;8.138;2022-07-30T04:52:17;14.80;99.90
33994;DHT22;20673;48.980;8.138;2022-07-30T04:54:48;14.80;99.90
33994;DHT22;20673;48.980;8.138;2022-07-30T04:57:23;14.90;99.90
33994;DHT22;20673;48.980;8.138;2022-07-30T04:59:53;14.90;99.90
33994;DHT22;20673;48.980;8.138;2022-07-30T05:02:21;14.90;99.90
33994;DHT22;20673;48.980;8.138;2022-07-30T05:04:49;15.10;99.90
33994;DHT22;20673;48.980;8.138;2022-07-30T05:07:17;15.10;99.90
33994;DHT22;20673;48.980;8.138;2022-07-30T05:09:47;15.20;99.90
33994;DHT22;20673;48.980;8.138;2022-07-30T05:12:13;15.30;99.90
33994;DHT22;20673;48.980;8.138;2022-07-30T05:14:40;15.40;99.90
33994;DHT22;20673;48.980;8.138;2022-07-30T05:17:07;15.40;99.90
33994;DHT22;20673;48.980;8.138;2022-07-30T05:19:33;15.50;99.90
33994;DHT22;20673;48.980;8.138;2022-07-30T05:21:59;15.60;99.90
33994;DHT22;20673;48.980;8.138;2022-07-30T05:24:25;15.80;99.90
33994;DHT22;20673;48.980;8.138;2022-07-30T05:26:51;15.80;99.90
33994;DHT22;20673;48.980;8.138;2022-07-30T05:29:18;16.00;99.90
33994;DHT22;20673;48.980;8.138;2022-07-30T05:31:44;16.10;99.90
33994;DHT22;20673;48.980;8.138;2022-07-30T05:34:10;16.20;99.90
33994;DHT22;20673;48.980;8.138;2022-07-30T05:36:36;16.40;99.90
33994;DHT22;20673;48.980;8.138;2022-07-30T05:39:02;16.50;99.90
33994;DHT22;20673;48.980;8.138;2022-07-30T05:41:29;16.70;99.90
33994;DHT22;20673;48.980;8.138;2022-07-30T05:43:55;16.90;99.90
33994;DHT22;20673;48.980;8.138;2022-07-30T05:46:22;17.00;99.90
33994;DHT22;20673;48.980;8.138;2022-07-30T05:48:48;17.20;99.90
33994;DHT22;20673;48.980;8.138;2022-07-30T05:51:15;17.40;99.90
33994;DHT22;20673;48.980;8.138;2022-07-30T05:53:43;17.50;99.90
33994;DHT22;20673;48.980;8.138;2022-07-30T05:56:09;17.70;99.90
33994;DHT22;20673;48.980;8.138;2022-07-30T05:58:35;17.80;99.90
33994;DHT22;20673;48.980;8.138;2022-07-30T06:01:01;17.90;99.90
33994;DHT22;20673;48.980;8.138;2022-07-30T06:03:28;18.10;99.90
33994;DHT22;20673;48.980;8.138;2022-07-30T06:05:54;18.20;99.90
33994;DHT22;20673;48.980;8.138;2022-07-30T06:08:20;18.30;99.90
33994;DHT22;20673;48.980;8.138;2022-07-30T06:10:46;18.40;99.90
33994;DHT22;20673;48.980;8.138;2022-07-30T06:13:13;18.50;99.90
33994;DHT22;20673;48.980;8.138;2022-07-30T06:15:39;18.70;99.90
33994;DHT22;20673;48.980;8.138;2022-07-30T06:18:05;18.90;99.90
33994;DHT22;20673;48.980;8.138;2022-07-30T06:20:31;19.10;99.90
33994;DHT22;20673;48.980;8.138;2022-07-30T06:22:57;19.30;99.90
33994;DHT22;20673;48.980;8.138;2022-07-30T06:25:24;19.40;99.90
33994;DHT22;20673;48.980;8.138;2022-07-30T06:27:50;19.50;99.90
33994;DHT22;20673;48.980;8.138;2022-07-30T06:30:16;19.50;99.90
33994;DHT22;20673;48.980;8.138;2022-07-30T06:32:42;19.60;99.90
33994;DHT22;20673;48.980;8.138;2022-07-30T06:35:10;19.60;99.90
33994;DHT22;20673;48.980;8.138;2022-07-30T06:37:36;19.60;99.90
33994;DHT22;20673;48.980;8.138;2022-07-30T06:40:03;19.50;99.90
33994;DHT22;20673;48.980;8.138;2022-07-30T06:42:30;19.50;99.90
33994;DHT22;20673;48.980;8.138;2022-07-30T06:44:56;19.50;99.90
33994;DHT22;20673;48.980;8.138;2022-07-30T06:47:22;19.70;99.90
33994;DHT22;20673;48.980;8.138;2022-07-30T06:49:54;19.60;99.90
33994;DHT22;20673;48.980;8.138;2022-07-30T06:52:21;19.70;99.90
33994;DHT22;20673;48.980;8.138;2022-07-30T06:54:48;19.80;99.90
33994;DHT22;20673;48.980;8.138;2022-07-30T06:57:15;19.80;99.90
33994;DHT22;20673;48.980;8.138;2022-07-30T06:59:41;19.90;99.90
33994;DHT22;20673;48.980;8.138;2022-07-30T07:02:07;20.00;99.90
33994;DHT22;20673;48.980;8.138;2022-07-30T07:04:34;20.10;99.90
33994;DHT22;20673;48.980;8.138;2022-07-30T07:07:00;20.30;99.90
33994;DHT22;20673;48.980;8.138;2022-07-30T07:09:26;20.40;99.90
33994;DHT22;20673;48.980;8.138;2022-07-30T07:11:52;20.50;99.90
33994;DHT22;20673;48.980;8.138;2022-07-30T07:14:18;20.60;99.90
33994;DHT22;20673;48.980;8.138;2022-07-30T07:16:45;20.70;99.90
33994;DHT22;20673;48.980;8.138;2022-07-30T07:19:13;20.80;99.90
33994;DHT22;20673;48.980;8.138;2022-07-30T07:21:39;20.80;99.90
33994;DHT22;20673;48.980;8.138;2022-07-30T07:24:06;20.90;99.90
33994;DHT22;20673;48.980;8.138;2022-07-30T07:26:33;20.90;99.90
33994;DHT22;20673;48.980;8.138;2022-07-30T07:29:00;21.00;99.90
33994;DHT22;20673;48.980;8.138;2022-07-30T07:31:27;21.00;99.90
33994;DHT22;20673;48.980;8.138;2022-07-30T07:33:53;21.20;99.90
33994;DHT22;20673;48.980;8.138;2022-07-30T07:36:20;21.30;99.90
33994;DHT22;20673;48.980;8.138;2022-07-30T07:38:46;21.30;99.90
33994;DHT22;20673;48.980;8.138;2022-07-30T07:41:13;21.30;99.90
33994;DHT22;20673;48.980;8.138;2022-07-30T07:43:39;21.50;99.90
33994;DHT22;20673;48.980;8.138;2022-07-30T07:46:06;21.60;99.90
33994;DHT22;20673;48.980;8.138;2022-07-30T07:48:32;21.70;99.90
33994;DHT22;20673;48.980;8.138;2022-07-30T07:50:59;21.70;99.90
33994;DHT22;20673;48.980;8.138;2022-07-30T07:53:25;21.70;99.90
33994;DHT22;20673;48.980;8.138;2022-07-30T07:55:52;21.50;99.90
33994;DHT22;20673;48.980;8.138;2022-07-30T07:58:18;21.70;99.90
33994;DHT22;20673;48.980;8.138;2022-07-30T08:00:44;21.80;99.90
33994;DHT22;20673;48.980;8.138;2022-07-30T08:03:11;22.00;99.90
33994;DHT22;20673;48.980;8.138;2022-07-30T08:05:37;22.20;99.90
33994;DHT22;20673;48.980;8.138;2022-07-30T08:08:03;22.20;99.90
33994;DHT22;20673;48.980;8.138;2022-07-30T08:10:31;22.40;99.90
33994;DHT22;20673;48.980;8.138;2022-07-30T08:12:57;22.60;99.90
33994;DHT22;20673;48.980;8.138;2022-07-30T08:15:23;22.70;99.90
33994;DHT22;20673;48.980;8.138;2022-07-30T08:17:49;22.70;99.90
33994;DHT22;20673;48.980;8.138;2022-07-30T08:20:16;22.60;99.90
33994;DHT22;20673;48.980;8.138;2022-07-30T08:22:42;22.60;99.90
33994;DHT22;20673;48.980;8.138;2022-07-30T08:25:09;22.90;99.90
33994;DHT22;20673;48.980;8.138;2022-07-30T08:27:35;23.20;99.90
33994;DHT22;20673;48.980;8.138;2022-07-30T08:30:06;23.60;99.90
33994;DHT22;20673;48.980;8.138;2022-07-30T08:32:34;23.90;99.90
33994;DHT22;20673;48.980;8.138;2022-07-30T08:35:03;24.20;99.90
33994;DHT22;20673;48.980;8.138;2022-07-30T08:37:30;24.40;99.90
33994;DHT22;20673;48.980;8.138;2022-07-30T08:39:56;24.60;99.90
33994;DHT22;20673;48.980;8.138;2022-07-30T08:42:22;24.90;99.90
33994;DHT22;20673;48.980;8.138;2022-07-30T08:44:51;25.00;99.90
33994;DHT22;20673;48.980;8.138;2022-07-30T08:47:22;25.20;99.90
33994;DHT22;20673;48.980;8.138;2022-07-30T08:49:51;25.50;99.90
33994;DHT22;20673;48.980;8.138;2022-07-30T08:52:18;25.40;99.90
33994;DHT22;20673;48.980;8.138;2022-07-30T08:54:45;25.70;99.90
33994;DHT22;20673;48.980;8.138;2022-07-30T08:57:11;25.90;99.90
33994;DHT22;20673;48.980;8.138;2022-07-30T08:59:38;25.90;99.90
33994;DHT22;20673;48.980;8.138;2022-07-30T09:02:05;26.00;99.90
33994;DHT22;20673;48.980;8.138;2022-07-30T09:04:32;26.20;99.90
33994;DHT22;20673;48.980;8.138;2022-07-30T09:06:58;26.30;99.90
33994;DHT22;20673;48.980;8.138;2022-07-30T09:09:26;26.50;99.90
33994;DHT22;20673;48.980;8.138;2022-07-30T09:11:52;26.60;99.90
33994;DHT22;20673;48.980;8.138;2022-07-30T09:14:18;26.70;99.90
33994;DHT22;20673;48.980;8.138;2022-07-30T09:16:45;26.90;99.90
33994;DHT22;20673;48.980;8.138;2022-07-30T09:19:18;26.80;99.90
33994;DHT22;20673;48.980;8.138;2022-07-30T09:21:58;26.80;99.90
33994;DHT22;20673;48.980;8.138;2022-07-30T09:24:26;26.90;99.90
33994;DHT22;20673;48.980;8.138;2022-07-30T09:26:57;27.00;99.90
33994;DHT22;20673;48.980;8.138;2022-07-30T09:29:27;27.00;99.90
33994;DHT22;20673;48.980;8.138;2022-07-30T09:31:57;27.10;99.90
33994;DHT22;20673;48.980;8.138;2022-07-30T09:34:26;27.20;99.90
33994;DHT22;20673;48.980;8.138;2022-07-30T09:37:00;27.10;99.90
33994;DHT22;20673;48.980;8.138;2022-07-30T09:39:32;27.30;99.90
33994;DHT22;20673;48.980;8.138;2022-07-30T09:42:02;27.40;99.90
33994;DHT22;20673;48.980;8.138;2022-07-30T09:44:30;27.50;99.90
33994;DHT22;20673;48.980;8.138;2022-07-30T09:46:57;27.70;99.90
33994;DHT22;20673;48.980;8.138;2022-07-30T09:49:25;27.80;99.90
33994;DHT22;20673;48.980;8.138;2022-07-30T09:51:54;27.70;99.90
33994;DHT22;20673;48.980;8.138;2022-07-30T09:54:21;27.60;99.90
33994;DHT22;20673;48.980;8.138;2022-07-30T09:57:02;27.50;99.90
33994;DHT22;20673;48.980;8.138;2022-07-30T09:59:34;27.70;99.90
33994;DHT22;20673;48.980;8.138;2022-07-30T10:02:00;27.90;99.90
33994;DHT22;20673;48.980;8.138;2022-07-30T10:04:29;28.30;99.90
33994;DHT22;20673;48.980;8.138;2022-07-30T10:06:59;28.40;99.90
33994;DHT22;20673;48.980;8.138;2022-07-30T10:09:31;28.50;99.90
33994;DHT22;20673;48.980;8.138;2022-07-30T10:12:01;28.80;99.90
33994;DHT22;20673;48.980;8.138;2022-07-30T10:14:34;28.80;99.90
33994;DHT22;20673;48.980;8.138;2022-07-30T10:17:03;28.70;99.90
33994;DHT22;20673;48.980;8.138;2022-07-30T10:19:32;29.00;99.90
33994;DHT22;20673;48.980;8.138;2022-07-30T10:21:59;29.10;99.90
33994;DHT22;20673;48.980;8.138;2022-07-30T10:24:25;29.20;99.90
33994;DHT22;20673;48.980;8.138;2022-07-30T10:26:53;29.30;99.90
33994;DHT22;20673;48.980;8.138;2022-07-30T10:29:20;29.30;99.90
33994;DHT22;20673;48.980;8.138;2022-07-30T10:31:48;29.40;99.90
33994;DHT22;20673;48.980;8.138;2022-07-30T10:34:18;29.10;99.90
33994;DHT22;20673;48.980;8.138;2022-07-30T10:36:51;29.20;99.90
33994;DHT22;20673;48.980;8.138;2022-07-30T10:39:23;29.50;99.90
33994;DHT22;20673;48.980;8.138;2022-07-30T10:44:59;29.30;99.90
33994;DHT22;20673;48.980;8.138;2022-07-30T10:47:31;29.60;99.90
33994;DHT22;20673;48.980;8.138;2022-07-30T10:50:16;29.50;99.90
33994;DHT22;20673;48.980;8.138;2022-07-30T10:55:22;29.60;99.90
33994;DHT22;20673;48.980;8.138;2022-07-30T10:58:02;28.80;99.90
33994;DHT22;20673;48.980;8.138;2022-07-30T11:00:32;28.90;99.90
33994;DHT22;20673;48.980;8.138;2022-07-30T11:05:49;28.50;99.90
33994;DHT22;20673;48.980;8.138;2022-07-30T11:08:38;28.30;99.90
33994;DHT22;20673;48.980;8.138;2022-07-30T11:19:14;29.00;99.90
33994;DHT22;20673;48.980;8.138;2022-07-30T11:21:43;29.10;99.90
33994;DHT22;20673;48.980;8.138;2022-07-30T11:24:42;29.20;98.70
33994;DHT22;20673;48.980;8.138;2022-07-30T11:27:08;29.30;98.60
33994;DHT22;20673;48.980;8.138;2022-07-30T11:29:40;29.50;97.40
33994;DHT22;20673;48.980;8.138;2022-07-30T11:35:13;30.40;97.30
33994;DHT22;20673;48.980;8.138;2022-07-30T11:38:00;30.60;96.30
33994;DHT22;20673;48.980;8.138;2022-07-30T11:41:21;30.10;95.50
33994;DHT22;20673;48.980;8.138;2022-07-30T11:43:19;29.20;96.10
33994;DHT22;20673;48.980;8.138;2022-07-30T11:45:47;29.00;96.70
33994;DHT22;20673;48.980;8.138;2022-07-30T11:48:16;28.70;96.80
33994;DHT22;20673;48.980;8.138;2022-07-30T11:50:46;28.80;97.10
33994;DHT22;20673;48.980;8.138;2022-07-30T11:53:19;29.40;96.70
33994;DHT22;20673;48.980;8.138;2022-07-30T11:55:56;29.90;96.80
33994;DHT22;20673;48.980;8.138;2022-07-30T11:58:34;30.30;95.10
33994;DHT22;20673;48.980;8.138;2022-07-30T12:03:38;29.70;95.10
33994;DHT22;20673;48.980;8.138;2022-07-30T12:06:10;29.40;95.40
33994;DHT22;20673;48.980;8.138;2022-07-30T12:08:39;29.10;95.90
33994;DHT22;20673;48.980;8.138;2022-07-30T12:11:06;29.90;96.10
33994;DHT22;20673;48.980;8.138;2022-07-30T12:13:33;30.60;95.50
33994;DHT22;20673;48.980;8.138;2022-07-30T12:16:09;30.20;95.30
33994;DHT22;20673;48.980;8.138;2022-07-30T12:18:37;30.10;94.90
33994;DHT22;20673;48.980;8.138;2022-07-30T12:21:05;30.50;94.10
33994;DHT22;20673;48.980;8.138;2022-07-30T12:23:34;30.60;93.80
33994;DHT22;20673;48.980;8.138;2022-07-30T12:26:00;31.00;94.80
33994;DHT22;20673;48.980;8.138;2022-07-30T12:28:30;31.50;93.80
33994;DHT22;20673;48.980;8.138;2022-07-30T12:30:58;32.00;93.20
33994;DHT22;20673;48.980;8.138;2022-07-30T12:33:27;31.80;92.40
33994;DHT22;20673;48.980;8.138;2022-07-30T12:35:56;31.90;92.20
33994;DHT22;20673;48.980;8.138;2022-07-30T12:38:24;32.10;91.90
33994;DHT22;20673;48.980;8.138;2022-07-30T12:40:55;31.80;92.20
33994;DHT22;20673;48.980;8.138;2022-07-30T12:43:48;31.30;93.00
33994;DHT22;20673;48.980;8.138;2022-07-30T12:46:24;31.40;92.20
33994;DHT22;20673;48.980;8.138;2022-07-30T12:48:56;31.60;91.60
33994;DHT22;20673;48.980;8.138;2022-07-30T12:51:30;31.40;92.00
33994;DHT22;20673;48.980;8.138;2022-07-30T12:53:58;31.60;91.60
33994;DHT22;20673;48.980;8.138;2022-07-30T12:56:31;32.00;91.40
33994;DHT22;20673;48.980;8.138;2022-07-30T12:58:57;32.10;91.40
33994;DHT22;20673;48.980;8.138;2022-07-30T13:01:42;32.30;90.70
33994;DHT22;20673;48.980;8.138;2022-07-30T13:04:11;32.30;91.80
33994;DHT22;20673;48.980;8.138;2022-07-30T13:06:39;32.50;90.60
33994;DHT22;20673;48.980;8.138;2022-07-30T13:09:06;32.80;90.40
33994;DHT22;20673;48.980;8.138;2022-07-30T13:11:45;32.70;90.10
33994;DHT22;20673;48.980;8.138;2022-07-30T13:14:12;32.50;90.20
33994;DHT22;20673;48.980;8.138;2022-07-30T13:16:41;32.30;90.20
33994;DHT22;20673;48.980;8.138;2022-07-30T13:19:09;31.60;90.00
33994;DHT22;20673;48.980;8.138;2022-07-30T13:21:37;31.40;90.00
33994;DHT22;20673;48.980;8.138;2022-07-30T13:24:04;31.20;90.50
33994;DHT22;20673;48.980;8.138;2022-07-30T13:26:32;32.00;90.80
33994;DHT22;20673;48.980;8.138;2022-07-30T13:29:00;32.10;87.40
33994;DHT22;20673;48.980;8.138;2022-07-30T13:31:28;32.20;86.90
33994;DHT22;20673;48.980;8.138;2022-07-30T13:33:54;32.30;86.80
33994;DHT22;20673;48.980;8.138;2022-07-30T13:36:20;32.40;85.60
33994;DHT22;20673;48.980;8.138;2022-07-30T13:38:47;32.40;86.20
33994;DHT22;20673;48.980;8.138;2022-07-30T13:41:13;32.60;85.90
33994;DHT22;20673;48.980;8.138;2022-07-30T13:43:41;32.70;86.10
33994;DHT22;20673;48.980;8.138;2022-07-30T13:46:07;32.60;86.10
33994;DHT22;20673;48.980;8.138;2022-07-30T13:48:34;32.30;83.30
33994;DHT22;20673;48.980;8.138;2022-07-30T13:51:01;32.50;83.20
33994;DHT22;20673;48.980;8.138;2022-07-30T13:53:28;32.30;83.70
33994;DHT22;20673;48.980;8.138;2022-07-30T13:55:55;32.80;84.30
33994;DHT22;20673;48.980;8.138;2022-07-30T13:58:24;33.10;81.20
33994;DHT22;20673;48.980;8.138;2022-07-30T14:00:50;33.30;81.70
33994;DHT22;20673;48.980;8.138;2022-07-30T14:03:16;32.80;81.80
33994;DHT22;20673;48.980;8.138;2022-07-30T14:05:43;33.00;81.70
33994;DHT22;20673;48.980;8.138;2022-07-30T14:08:10;32.90;79.70
33994;DHT22;20673;48.980;8.138;2022-07-30T14:10:37;32.80;80.30
33994;DHT22;20673;48.980;8.138;2022-07-30T14:13:05;32.70;80.30
33994;DHT22;20673;48.980;8.138;2022-07-30T14:15:34;32.60;79.70
33994;DHT22;20673;48.980;8.138;2022-07-30T14:18:00;32.70;81.00
33994;DHT22;20673;48.980;8.138;2022-07-30T14:20:27;32.70;79.50
33994;DHT22;20673;48.980;8.138;2022-07-30T14:22:54;32.90;79.50
33994;DHT22;20673;48.980;8.138;2022-07-30T14:25:21;33.10;80.90
33994;DHT22;20673;48.980;8.138;2022-07-30T14:27:47;33.30;78.90
33994;DHT22;20673;48.980;8.138;2022-07-30T14:30:14;32.80;79.30
33994;DHT22;20673;48.980;8.138;2022-07-30T14:32:40;32.40;77.70
33994;DHT22;20673;48.980;8.138;2022-07-30T14:35:07;32.00;78.90
33994;DHT22;20673;48.980;8.138;2022-07-30T14:37:35;31.80;79.00
33994;DHT22;20673;48.980;8.138;2022-07-30T14:40:05;31.90;79.60
33994;DHT22;20673;48.980;8.138;2022-07-30T14:42:34;32.30;77.60
33994;DHT22;20673;48.980;8.138;2022-07-30T14:45:07;32.30;77.20
33994;DHT22;20673;48.980;8.138;2022-07-30T14:47:33;32.60;79.10
33994;DHT22;20673;48.980;8.138;2022-07-30T14:49:59;32.80;77.20
33994;DHT22;20673;48.980;8.138;2022-07-30T14:52:26;32.50;77.00
33994;DHT22;20673;48.980;8.138;2022-07-30T14:54:52;32.30;76.50
33994;DHT22;20673;48.980;8.138;2022-07-30T14:57:18;32.30;77.40
33994;DHT22;20673;48.980;8.138;2022-07-30T14:59:45;32.40;77.20
33994;DHT22;20673;48.980;8.138;2022-07-30T15:02:11;32.30;76.50
33994;DHT22;20673;48.980;8.138;2022-07-30T15:04:37;32.40;75.40
33994;DHT22;20673;48.980;8.138;2022-07-30T15:07:03;32.20;77.20
33994;DHT22;20673;48.980;8.138;2022-07-30T15:09:29;32.30;77.30
33994;DHT22;20673;48.980;8.138;2022-07-30T15:11:55;32.60;77.70
33994;DHT22;20673;48.980;8.138;2022-07-30T15:14:22;32.60;76.90
33994;DHT22;20673;48.980;8.138;2022-07-30T15:16:48;32.00;76.50
33994;DHT22;20673;48.980;8.138;2022-07-30T15:19:14;31.80;77.30
33994;DHT22;20673;48.980;8.138;2022-07-30T15:21:40;31.70;77.10
33994;DHT22;20673;48.980;8.138;2022-07-30T15:24:09;31.50;78.20
33994;DHT22;20673;48.980;8.138;2022-07-30T15:26:35;31.10;78.80
33994;DHT22;20673;48.980;8.138;2022-07-30T15:29:01;31.00;78.50
33994;DHT22;20673;48.980;8.138;2022-07-30T15:31:28;31.50;79.70
33994;DHT22;20673;48.980;8.138;2022-07-30T15:33:54;31.90;78.20
33994;DHT22;20673;48.980;8.138;2022-07-30T15:36:20;32.20;78.10
33994;DHT22;20673;48.980;8.138;2022-07-30T15:38:46;31.90;77.80
33994;DHT22;20673;48.980;8.138;2022-07-30T15:41:12;31.90;77.80
33994;DHT22;20673;48.980;8.138;2022-07-30T15:43:39;31.70;75.60
33994;DHT22;20673;48.980;8.138;2022-07-30T15:46:05;31.70;76.40
33994;DHT22;20673;48.980;8.138;2022-07-30T15:48:31;32.00;77.50
33994;DHT22;20673;48.980;8.138;2022-07-30T15:51:02;31.90;77.20
33994;DHT22;20673;48.980;8.138;2022-07-30T15:53:30;32.20;77.80
33994;DHT22;20673;48.980;8.138;2022-07-30T15:55:57;32.30;77.00
33994;DHT22;20673;48.980;8.138;2022-07-30T15:58:24;32.30;75.60
33994;DHT22;20673;48.980;8.138;2022-07-30T16:00:51;32.40;75.90
33994;DHT22;20673;48.980;8.138;2022-07-30T16:03:17;32.30;74.70
33994;DHT22;20673;48.980;8.138;2022-07-30T16:05:43;32.40;75.60